createdAt,value
2023-01-25T00:00:50.835Z,21.37
2023-01-25T00:03:18.773Z,21.60
2023-01-25T00:05:46.936Z,22.73
2023-01-25T00:08:14.875Z,21.73
2023-01-25T00:10:42.763Z,23.13
2023-01-25T00:13:10.752Z,24.03
2023-01-25T00:15:38.803Z,22.83
2023-01-25T00:18:08.058Z,21.30
2023-01-25T00:20:35.918Z,23.47
2023-01-25T00:23:03.865Z,23.77
2023-01-25T00:25:31.704Z,23.50
2023-01-25T00:27:59.538Z,24.57
2023-01-25T00:30:27.485Z,24.17
2023-01-25T00:33:03.057Z,23.10
2023-01-25T00:35:33.519Z,23.90
2023-01-25T00:38:03.848Z,24.40
2023-01-25T00:40:32.127Z,23.70
2023-01-25T00:43:01.186Z,22.53
2023-01-25T00:45:29.088Z,24.37
2023-01-25T00:47:57.385Z,24.87
2023-01-25T00:50:25.387Z,24.87
2023-01-25T00:52:54.556Z,23.47
2023-01-25T00:55:22.375Z,22.50
2023-01-25T00:57:50.297Z,23.37
2023-01-25T01:00:18.752Z,23.27
2023-01-25T01:02:46.638Z,21.93
2023-01-25T01:05:14.605Z,22.37
2023-01-25T01:07:43.785Z,22.97
2023-01-25T01:10:13.349Z,23.00
2023-01-25T01:12:41.207Z,23.40
2023-01-25T01:15:10.439Z,23.00
2023-01-25T01:17:38.322Z,23.80
2023-01-25T01:20:07.064Z,21.57
2023-01-25T01:22:34.930Z,22.80
2023-01-25T01:25:02.773Z,24.17
2023-01-25T01:27:32.471Z,22.77
2023-01-25T01:30:00.377Z,21.87
2023-01-25T01:32:28.335Z,21.63
2023-01-25T01:34:56.283Z,22.47
2023-01-25T01:37:24.293Z,20.73
2023-01-25T01:39:53.199Z,20.10
2023-01-25T01:42:21.086Z,19.17
2023-01-25T01:44:52.647Z,18.80
2023-01-25T01:47:25.163Z,18.23
2023-01-25T01:49:55.377Z,19.40
2023-01-25T01:52:28.669Z,18.63
2023-01-25T01:55:01.186Z,18.57
2023-01-25T01:57:35.973Z,18.93
2023-01-25T02:00:11.379Z,18.17
2023-01-25T02:02:39.376Z,18.93
2023-01-25T02:05:11.343Z,19.23
2023-01-25T02:07:40.491Z,18.53
2023-01-25T02:10:12.549Z,19.30
2023-01-25T02:12:41.846Z,19.13
2023-01-25T02:15:12.489Z,17.70
2023-01-25T02:17:42.692Z,17.80
2023-01-25T02:20:18.698Z,17.37
2023-01-25T02:22:54.720Z,17.93
2023-01-25T02:25:24.007Z,17.80
2023-01-25T02:27:55.998Z,18.07
2023-01-25T02:30:24.550Z,16.40
2023-01-25T02:32:52.456Z,16.60
2023-01-25T02:35:22.073Z,16.57
2023-01-25T02:37:50.463Z,17.90
2023-01-25T02:40:19.161Z,17.50
2023-01-25T02:42:48.367Z,17.67
2023-01-25T02:45:20.185Z,16.50
2023-01-25T02:47:48.735Z,17.67
2023-01-25T02:50:17.453Z,18.33
2023-01-25T02:52:45.340Z,18.00
2023-01-25T02:55:13.498Z,18.03
2023-01-25T02:57:41.373Z,18.43
2023-01-25T03:00:13.197Z,18.63
2023-01-25T03:02:41.526Z,17.77
2023-01-25T03:05:10.661Z,17.87
2023-01-25T03:07:38.684Z,17.73
2023-01-25T03:10:07.157Z,17.97
2023-01-25T03:12:35.408Z,18.50
2023-01-25T03:15:03.370Z,18.40
2023-01-25T03:17:32.612Z,17.80
2023-01-25T03:20:00.443Z,18.93
2023-01-25T03:22:28.307Z,18.77
2023-01-25T03:24:57.344Z,18.73
2023-01-25T03:27:25.391Z,19.13
2023-01-25T03:29:53.317Z,19.43
2023-01-25T03:32:21.165Z,19.73
2023-01-25T03:34:50.615Z,18.47
2023-01-25T03:37:18.618Z,19.47
2023-01-25T03:39:46.467Z,19.13
2023-01-25T03:42:15.305Z,18.60
2023-01-25T03:44:43.150Z,19.20
2023-01-25T03:47:11.499Z,18.57
2023-01-25T03:49:39.378Z,18.47
2023-01-25T03:52:08.908Z,19.93
2023-01-25T03:54:36.788Z,18.80
2023-01-25T03:57:04.853Z,18.00
2023-01-25T03:59:32.695Z,18.17
2023-01-25T04:02:00.588Z,19.03
2023-01-25T04:04:28.456Z,18.83
2023-01-25T04:06:56.366Z,18.73
2023-01-25T04:09:25.654Z,19.17
2023-01-25T04:11:53.502Z,19.23
2023-01-25T04:14:35.005Z,19.87
2023-01-25T04:17:10.886Z,19.37
2023-01-25T04:19:38.952Z,18.77
2023-01-25T04:22:06.894Z,19.73
2023-01-25T04:24:36.097Z,19.50
2023-01-25T04:27:04.009Z,20.20
2023-01-25T04:29:40.514Z,21.20
2023-01-25T04:32:09.537Z,21.70
2023-01-25T04:34:37.539Z,21.63
2023-01-25T04:37:05.396Z,21.43
2023-01-25T04:39:33.303Z,20.70
2023-01-25T04:42:02.551Z,21.37
2023-01-25T04:44:30.455Z,21.00
2023-01-25T04:46:58.329Z,21.60
2023-01-25T04:49:26.203Z,20.93
2023-01-25T04:51:54.062Z,20.27
2023-01-25T04:54:21.930Z,22.27
2023-01-25T04:56:49.725Z,21.83
2023-01-25T04:59:18.980Z,20.70
2023-01-25T05:01:46.847Z,20.63
2023-01-25T05:04:14.722Z,19.60
2023-01-25T05:06:42.611Z,19.87
2023-01-25T05:09:10.737Z,18.37
2023-01-25T05:11:38.922Z,18.23
2023-01-25T05:14:06.762Z,18.17
2023-01-25T05:16:36.071Z,17.57
2023-01-25T05:19:03.949Z,16.70
2023-01-25T05:21:49.241Z,15.87
2023-01-25T05:24:17.166Z,14.90
2023-01-25T05:27:03.953Z,15.70
2023-01-25T05:29:35.932Z,15.53
2023-01-25T05:32:06.946Z,14.93
2023-01-25T05:34:35.428Z,15.70
2023-01-25T05:37:04.452Z,15.53
2023-01-25T05:39:32.505Z,14.33
2023-01-25T05:42:00.580Z,13.87
2023-01-25T05:44:28.479Z,14.70
2023-01-25T05:46:56.641Z,15.20
2023-01-25T05:49:25.871Z,14.60
2023-01-25T05:51:53.684Z,15.40
2023-01-25T05:54:22.000Z,16.23
2023-01-25T05:56:51.104Z,15.40
2023-01-25T05:59:19.248Z,14.97
2023-01-25T06:01:47.302Z,15.07
2023-01-25T06:04:16.904Z,15.50
2023-01-25T06:06:46.127Z,16.73
2023-01-25T06:09:14.760Z,16.30
2023-01-25T06:11:44.935Z,16.87
2023-01-25T06:14:13.035Z,17.97
2023-01-25T06:16:40.978Z,16.60
2023-01-25T06:19:09.557Z,17.33
2023-01-25T06:21:37.682Z,17.53
2023-01-25T06:24:07.683Z,17.43
2023-01-25T06:26:35.595Z,17.77
2023-01-25T06:29:05.576Z,18.20
2023-01-25T06:31:33.541Z,17.60
2023-01-25T06:34:04.469Z,18.83
2023-01-25T06:36:32.330Z,17.37
2023-01-25T06:39:00.353Z,17.07
2023-01-25T06:41:29.650Z,17.90
2023-01-25T06:43:57.500Z,17.90
2023-01-25T06:46:25.798Z,17.23
2023-01-25T06:48:53.728Z,16.73
2023-01-25T06:51:21.541Z,17.73
2023-01-25T06:53:49.354Z,18.60
2023-01-25T06:56:19.640Z,19.57
2023-01-25T06:58:48.999Z,18.17
2023-01-25T07:01:19.910Z,19.37
2023-01-25T07:03:49.926Z,17.07
2023-01-25T07:06:17.898Z,19.07
2023-01-25T07:08:46.095Z,17.47
2023-01-25T07:11:15.301Z,17.83
2023-01-25T07:13:45.840Z,18.23
2023-01-25T07:16:17.255Z,17.33
2023-01-25T07:18:45.586Z,17.90
2023-01-25T07:21:14.906Z,18.07
2023-01-25T07:23:43.330Z,18.33
2023-01-25T07:26:16.455Z,17.57
2023-01-25T07:28:44.654Z,17.57
2023-01-25T07:31:12.703Z,17.80
2023-01-25T07:33:42.272Z,17.50
2023-01-25T07:36:11.905Z,16.53
2023-01-25T07:38:39.813Z,17.87
2023-01-25T07:41:07.821Z,17.43
2023-01-25T07:43:35.737Z,16.07
2023-01-25T07:46:05.703Z,16.33
2023-01-25T07:48:34.099Z,17.17
2023-01-25T07:51:23.017Z,17.17
2023-01-25T07:53:52.760Z,18.00
2023-01-25T07:56:22.002Z,16.07
2023-01-25T07:58:49.928Z,16.67
2023-01-25T08:01:19.623Z,16.03
2023-01-25T08:03:48.384Z,17.00
2023-01-25T08:06:18.485Z,16.97
2023-01-25T08:08:49.155Z,17.27
2023-01-25T08:11:20.233Z,18.23
2023-01-25T08:13:49.884Z,17.77
2023-01-25T08:16:19.560Z,18.17
2023-01-25T08:18:49.120Z,16.73
2023-01-25T08:21:19.047Z,17.60
2023-01-25T08:23:47.464Z,17.23
2023-01-25T08:26:18.130Z,17.53
2023-01-25T08:28:46.384Z,20.30
2023-01-25T08:31:16.289Z,20.27
2023-01-25T08:33:46.663Z,19.67
2023-01-25T08:36:15.586Z,21.10
2023-01-25T08:38:44.933Z,20.00
2023-01-25T08:41:14.789Z,20.03
2023-01-25T08:43:43.085Z,21.07
2023-01-25T08:46:11.612Z,21.40
2023-01-25T08:48:39.741Z,21.90
2023-01-25T08:51:09.999Z,20.80
2023-01-25T08:53:37.808Z,21.10
2023-01-25T08:56:09.047Z,21.63
2023-01-25T08:58:39.708Z,22.30
2023-01-25T09:01:09.823Z,21.97
2023-01-25T09:03:39.713Z,23.63
2023-01-25T09:06:08.901Z,22.13
2023-01-25T09:08:38.001Z,21.77
2023-01-25T09:11:08.712Z,23.40
2023-01-25T09:13:36.732Z,22.60
2023-01-25T09:16:07.760Z,21.90
2023-01-25T09:18:37.780Z,21.97
2023-01-25T09:21:07.903Z,23.17
2023-01-25T09:23:44.396Z,23.13
2023-01-25T09:26:21.201Z,23.23
2023-01-25T09:28:50.572Z,22.60
2023-01-25T09:31:22.292Z,23.00
2023-01-25T09:33:52.962Z,22.73
2023-01-25T09:36:21.578Z,24.10
2023-01-25T09:38:49.804Z,22.77
2023-01-25T09:41:36.957Z,24.97
2023-01-25T09:44:23.992Z,25.50
2023-01-25T09:46:55.200Z,25.37
2023-01-25T09:49:37.121Z,25.50
2023-01-25T09:52:30.136Z,24.03
2023-01-25T09:54:58.942Z,24.83
2023-01-25T09:57:34.605Z,26.30
2023-01-25T10:00:10.659Z,26.53
2023-01-25T10:02:45.375Z,26.33
2023-01-25T10:05:17.986Z,25.37
2023-01-25T10:07:58.163Z,25.97
2023-01-25T10:10:33.915Z,26.00
2023-01-25T10:13:04.095Z,26.40
2023-01-25T10:15:38.265Z,27.40
2023-01-25T10:18:18.180Z,25.43
2023-01-25T10:20:51.085Z,25.80
2023-01-25T10:23:38.787Z,25.53
2023-01-25T10:26:11.279Z,27.53
2023-01-25T10:28:47.595Z,28.53
2023-01-25T10:31:20.188Z,27.63
2023-01-25T10:33:51.859Z,25.90
2023-01-25T10:36:26.088Z,28.60
2023-01-25T10:38:59.417Z,27.23
2023-01-25T10:41:32.691Z,29.30
2023-01-25T10:44:19.400Z,29.57
2023-01-25T10:46:52.765Z,30.47
2023-01-25T10:49:26.401Z,31.67
2023-01-25T10:51:54.471Z,31.37
2023-01-25T10:54:24.181Z,32.70
2023-01-25T10:56:53.439Z,31.37
2023-01-25T10:59:25.702Z,33.80
2023-01-25T11:01:54.826Z,33.03
2023-01-25T11:04:32.326Z,32.77
2023-01-25T11:07:02.687Z,33.73
2023-01-25T11:09:33.527Z,33.20
2023-01-25T11:12:03.066Z,34.43
2023-01-25T11:14:34.164Z,33.47
2023-01-25T11:17:05.102Z,33.77
2023-01-25T11:19:35.778Z,33.07
2023-01-25T11:22:05.852Z,31.90
2023-01-25T11:24:34.670Z,32.70
2023-01-25T11:27:23.076Z,31.47
2023-01-25T11:30:11.336Z,33.77
2023-01-25T11:32:41.069Z,33.57
2023-01-25T11:35:15.033Z,33.20
2023-01-25T11:38:09.094Z,32.27
2023-01-25T11:40:43.019Z,31.80
2023-01-25T11:43:27.227Z,32.70
2023-01-25T11:46:13.123Z,32.50
2023-01-25T11:49:00.098Z,32.40
2023-01-25T11:51:33.707Z,33.13
2023-01-25T11:54:21.900Z,32.87
2023-01-25T11:56:58.963Z,32.67
2023-01-25T11:59:51.987Z,31.77
2023-01-25T12:02:48.997Z,32.97
2023-01-25T12:05:29.942Z,30.97
2023-01-25T12:08:11.128Z,30.00
2023-01-25T12:10:48.478Z,29.50
2023-01-25T12:13:27.764Z,28.27
2023-01-25T12:16:16.648Z,29.30
2023-01-25T12:19:07.109Z,29.20
2023-01-25T12:21:51.492Z,29.87
2023-01-25T12:24:38.637Z,30.57
2023-01-25T12:27:21.589Z,30.53
2023-01-25T12:29:55.723Z,28.63
2023-01-25T12:32:27.787Z,29.30
2023-01-25T12:35:05.113Z,29.83
2023-01-25T12:37:38.873Z,28.07
2023-01-25T12:40:13.710Z,28.67
2023-01-25T12:42:48.723Z,28.27
2023-01-25T12:45:20.582Z,27.47
2023-01-25T12:47:55.149Z,27.27
2023-01-25T12:50:30.246Z,27.83
2023-01-25T12:53:04.771Z,27.93
2023-01-25T12:55:32.793Z,27.57
2023-01-25T12:58:05.465Z,27.30
2023-01-25T13:00:38.523Z,25.83
2023-01-25T13:03:24.963Z,27.50
2023-01-25T13:06:01.584Z,25.50
2023-01-25T13:08:43.163Z,25.77
2023-01-25T13:11:16.165Z,24.53
2023-01-25T13:13:44.134Z,23.60
2023-01-25T13:16:38.077Z,24.93
2023-01-25T13:19:06.502Z,24.47
2023-01-25T13:21:46.075Z,23.93
2023-01-25T13:24:19.707Z,23.43
2023-01-25T13:26:59.210Z,25.00
2023-01-25T13:29:59.063Z,24.67
2023-01-25T13:32:56.632Z,24.53
2023-01-25T13:35:33.183Z,24.63
2023-01-25T13:38:31.464Z,23.57
2023-01-25T13:41:24.258Z,25.33
2023-01-25T13:44:14.572Z,23.17
2023-01-25T13:46:43.350Z,23.93
2023-01-25T13:49:22.294Z,25.00
2023-01-25T13:51:50.411Z,23.33
2023-01-25T13:54:19.990Z,24.30
2023-01-25T13:56:47.900Z,24.10
2023-01-25T13:59:26.873Z,24.30
2023-01-25T14:01:54.865Z,24.60
2023-01-25T14:04:23.151Z,24.90
2023-01-25T14:06:57.264Z,25.07
2023-01-25T14:09:28.111Z,25.43
2023-01-25T14:11:57.874Z,26.03
2023-01-25T14:14:28.354Z,26.83
2023-01-25T14:19:37.384Z,25.97
2023-01-25T14:22:27.388Z,26.70
2023-01-25T14:25:13.079Z,23.93
2023-01-25T14:27:46.040Z,27.53
2023-01-25T14:30:19.774Z,27.70
2023-01-25T14:32:48.310Z,28.03
2023-01-25T14:35:43.112Z,29.87
2023-01-25T14:38:30.159Z,30.70
2023-01-25T14:41:03.317Z,29.97
2023-01-25T14:43:32.481Z,29.37
2023-01-25T14:46:00.905Z,28.80
2023-01-25T14:48:36.544Z,29.67
2023-01-25T14:51:08.402Z,30.07
2023-01-25T14:53:40.847Z,30.23
2023-01-25T14:56:22.842Z,31.47
2023-01-25T14:58:59.432Z,31.47
2023-01-25T15:01:33.004Z,33.50
2023-01-25T15:04:01.450Z,32.27
2023-01-25T15:06:29.611Z,34.50
2023-01-25T15:08:57.685Z,31.53
2023-01-25T15:11:45.490Z,33.93
2023-01-25T15:14:19.056Z,35.43
2023-01-25T15:16:47.275Z,35.27
2023-01-25T15:19:23.551Z,34.20
2023-01-25T15:21:52.083Z,32.23
2023-01-25T15:24:19.989Z,35.43
2023-01-25T15:26:53.041Z,34.50
2023-01-25T15:29:22.791Z,33.83
2023-01-25T15:31:52.295Z,34.67
2023-01-25T15:34:22.070Z,32.53
2023-01-25T15:36:50.075Z,34.90
2023-01-25T15:39:19.862Z,35.97
2023-01-25T15:41:48.259Z,35.17
2023-01-25T15:44:20.117Z,35.93
2023-01-25T15:46:51.429Z,33.90
2023-01-25T15:49:26.128Z,32.73
2023-01-25T15:51:54.067Z,35.23
2023-01-25T15:54:21.923Z,33.47
2023-01-25T15:56:53.782Z,34.70
2023-01-25T15:59:23.148Z,33.10
2023-01-25T16:01:51.442Z,33.30
2023-01-25T16:04:19.860Z,31.83
2023-01-25T16:06:50.175Z,34.60
2023-01-25T16:09:20.810Z,34.13
2023-01-25T16:11:51.699Z,33.80
2023-01-25T16:14:19.968Z,33.60
2023-01-25T16:16:52.252Z,32.50
2023-01-25T16:19:22.248Z,33.63
2023-01-25T16:21:50.235Z,32.00
2023-01-25T16:24:18.923Z,32.57
2023-01-25T16:26:51.741Z,30.83
2023-01-25T16:29:19.866Z,31.70
2023-01-25T16:31:49.144Z,30.17
2023-01-25T16:34:17.122Z,30.60
2023-01-25T16:36:50.474Z,30.83
2023-01-25T16:39:20.543Z,31.03
2023-01-25T16:41:49.011Z,28.63
2023-01-25T16:44:17.715Z,31.63
2023-01-25T16:46:47.534Z,29.93
2023-01-25T16:49:19.718Z,30.33
2023-01-25T16:51:49.002Z,30.33
2023-01-25T16:54:16.859Z,28.97
2023-01-25T16:56:44.774Z,29.90
2023-01-25T16:59:13.063Z,28.93
2023-01-25T17:01:41.604Z,28.40
2023-01-25T17:04:10.233Z,27.23
2023-01-25T17:06:42.927Z,28.33
2023-01-25T17:09:25.277Z,29.77
2023-01-25T17:11:54.153Z,27.47
2023-01-25T17:14:23.256Z,26.30
2023-01-25T17:16:53.774Z,26.67
2023-01-25T17:19:22.267Z,26.73
2023-01-25T17:21:51.636Z,28.23
2023-01-25T17:24:24.099Z,28.17
2023-01-25T17:26:52.491Z,28.87
2023-01-25T17:29:21.804Z,27.50
2023-01-25T17:31:50.239Z,26.57
2023-01-25T17:34:21.715Z,26.10
2023-01-25T17:36:52.625Z,26.77
2023-01-25T17:39:24.830Z,26.60
2023-01-25T17:41:53.619Z,25.07
2023-01-25T17:44:23.057Z,26.57
2023-01-25T17:46:51.838Z,25.73
2023-01-25T17:49:20.077Z,27.47
2023-01-25T17:51:48.051Z,25.90
2023-01-25T17:54:17.351Z,27.60
2023-01-25T17:56:45.428Z,26.93
2023-01-25T17:59:13.300Z,27.23
2023-01-25T18:01:42.959Z,29.13
2023-01-25T18:04:13.238Z,29.07
2023-01-25T18:06:41.592Z,31.13
2023-01-25T18:09:09.750Z,30.77
2023-01-25T18:11:40.321Z,32.10
2023-01-25T18:14:12.129Z,31.03
2023-01-25T18:16:41.739Z,33.27
2023-01-25T18:19:10.799Z,32.50
2023-01-25T18:21:39.374Z,35.60
2023-01-25T18:24:25.404Z,33.83
2023-01-25T18:26:59.845Z,35.80
2023-01-25T18:29:49.087Z,38.50
2023-01-25T18:32:17.329Z,35.00
2023-01-25T18:34:46.895Z,35.30
2023-01-25T18:37:21.822Z,34.27
2023-01-25T18:39:51.525Z,34.90
2023-01-25T18:42:21.618Z,34.57
2023-01-25T18:44:49.622Z,38.70
2023-01-25T18:47:18.987Z,41.63
2023-01-25T18:49:47.752Z,39.77
2023-01-25T18:52:16.677Z,41.30
2023-01-25T18:54:44.921Z,41.57
2023-01-25T18:57:13.284Z,40.90
2023-01-25T18:59:43.416Z,43.57
2023-01-25T19:02:13.125Z,45.63
2023-01-25T19:04:41.103Z,45.20
2023-01-25T19:07:09.153Z,45.90
2023-01-25T19:09:37.121Z,45.73
2023-01-25T19:12:05.499Z,46.47
2023-01-25T19:14:33.351Z,45.50
2023-01-25T19:17:02.578Z,46.93
2023-01-25T19:19:32.268Z,46.43
2023-01-25T19:22:00.492Z,48.73
2023-01-25T19:24:28.629Z,47.73
2023-01-25T19:26:56.463Z,43.50
2023-01-25T19:29:25.589Z,40.77
2023-01-25T19:31:53.454Z,39.07
2023-01-25T19:34:23.191Z,37.80
2023-01-25T19:36:51.215Z,37.93
2023-01-25T19:39:19.065Z,40.47
2023-01-25T19:41:47.632Z,39.43
2023-01-25T19:44:16.316Z,39.10
2023-01-25T19:46:44.771Z,38.27
2023-01-25T19:49:15.095Z,36.97
2023-01-25T19:51:48.997Z,38.87
2023-01-25T19:54:18.630Z,36.77
2023-01-25T19:56:48.501Z,36.60
2023-01-25T19:59:18.566Z,38.50
2023-01-25T20:01:47.611Z,40.97
2023-01-25T20:04:19.774Z,44.80
2023-01-25T20:06:49.718Z,43.23
2023-01-25T20:09:19.918Z,44.77
2023-01-25T20:11:48.646Z,45.70
2023-01-25T20:14:17.171Z,45.30
2023-01-25T20:16:47.165Z,45.93
2023-01-25T20:19:15.059Z,45.13
2023-01-25T20:21:44.319Z,46.50
2023-01-25T20:24:13.775Z,45.23
2023-01-25T20:26:43.084Z,44.43
2023-01-25T20:29:12.435Z,45.20
2023-01-25T20:31:42.291Z,47.47
2023-01-25T20:34:13.329Z,44.87
2023-01-25T20:36:42.407Z,44.67
2023-01-25T20:39:13.878Z,43.80
2023-01-25T20:41:41.753Z,41.03
2023-01-25T20:44:11.360Z,42.07
2023-01-25T20:46:40.502Z,40.23
2023-01-25T20:49:11.166Z,42.30
2023-01-25T20:51:39.979Z,41.30
2023-01-25T20:54:09.117Z,41.47
2023-01-25T20:56:39.146Z,42.37
2023-01-25T20:59:07.430Z,39.67
2023-01-25T21:01:37.523Z,42.77
2023-01-25T21:04:08.138Z,42.73
2023-01-25T21:06:36.568Z,44.50
2023-01-25T21:09:05.466Z,45.30
2023-01-25T21:11:34.730Z,45.03
2023-01-25T21:14:04.353Z,42.97
2023-01-25T21:16:36.290Z,43.50
2023-01-25T21:19:06.857Z,43.77
2023-01-25T21:21:35.839Z,44.23
2023-01-25T21:24:05.962Z,45.17
2023-01-25T21:26:35.489Z,47.27
2023-01-25T21:29:05.880Z,47.90
2023-01-25T21:31:35.944Z,49.97
2023-01-25T21:34:05.204Z,49.40
2023-01-25T21:36:33.436Z,50.53
2023-01-25T21:39:01.417Z,48.20
2023-01-25T21:41:31.345Z,48.23
2023-01-25T21:44:18.468Z,46.40
2023-01-25T21:47:16.293Z,46.83
2023-01-25T21:49:53.801Z,48.57
2023-01-25T21:52:21.651Z,49.97
2023-01-25T21:54:49.641Z,47.53
2023-01-25T21:57:17.647Z,47.07
2023-01-25T21:59:45.633Z,50.60
2023-01-25T22:02:15.831Z,48.73
2023-01-25T22:04:44.041Z,50.13
2023-01-25T22:07:12.540Z,48.23
2023-01-25T22:09:40.423Z,51.40
2023-01-25T22:12:08.485Z,49.23
2023-01-25T22:14:36.808Z,51.67
2023-01-25T22:17:05.122Z,50.33
2023-01-25T22:19:34.429Z,50.30
2023-01-25T22:22:03.287Z,50.53
2023-01-25T22:24:31.152Z,49.70
2023-01-25T22:27:05.623Z,49.17
2023-01-25T22:29:35.048Z,47.43
2023-01-25T22:32:03.256Z,50.77
2023-01-25T22:34:31.719Z,50.10
2023-01-25T22:37:01.192Z,50.50
2023-01-25T22:39:29.417Z,48.73
2023-01-25T22:41:57.555Z,49.63
2023-01-25T22:44:25.803Z,50.50
2023-01-25T22:46:53.836Z,53.30
2023-01-25T22:49:22.143Z,54.43
2023-01-25T22:51:50.008Z,51.10
2023-01-25T22:54:19.327Z,52.00
2023-01-25T22:56:47.273Z,52.60
2023-01-25T22:59:18.884Z,50.50
2023-01-25T23:01:46.910Z,51.93
2023-01-25T23:04:14.813Z,50.40
2023-01-25T23:06:42.969Z,49.17
2023-01-25T23:09:11.196Z,48.60
2023-01-25T23:11:40.533Z,50.43
2023-01-25T23:14:29.772Z,52.33
2023-01-25T23:17:17.888Z,51.03
2023-01-25T23:19:44.839Z,53.23
2023-01-25T23:22:12.690Z,50.73
2023-01-25T23:24:40.752Z,51.37
2023-01-25T23:27:10.087Z,48.67
2023-01-25T23:29:38.266Z,48.23
2023-01-25T23:32:06.721Z,46.40
2023-01-25T23:34:39.660Z,46.70
2023-01-25T23:37:07.606Z,46.77
2023-01-25T23:39:35.447Z,47.27
2023-01-25T23:42:03.648Z,46.37
2023-01-25T23:44:33.382Z,45.73
2023-01-25T23:47:01.732Z,47.67
2023-01-25T23:49:30.060Z,46.00
2023-01-25T23:51:57.911Z,45.20
2023-01-25T23:54:26.967Z,43.40
2023-01-25T23:56:55.531Z,46.33
2023-01-25T23:59:23.427Z,47.37
